San Fernando, Philippines
Current Conditions -  °F | °C
As of 3:00 AM on Friday 24 Oct 2014 (Local Time) from RPLC Reporting Station
Broken Clouds Broken Clouds  
Wind Chill: 77°   Ceiling: 30000
Heat Index: 78°   Visibility: 6mi
Dew Point: 72°   Wind: 3mph
Humidity: 83%   Direction: 290°WNW
Pressure: 29.88"   Gusts: NA
Location:  16.62°N, 120.32°E
Report Text: RPLC 231900Z 29003KT 9999 FEW042 BKN300 25/22 Q1012 A2988 RMK NOSIG
Loading
Personal Weather Stations






























Interactive Weather Map
Tropical Storm Tracking
New forecast layout! Learn more

10-Day Weather Forecast

Advertisements
Track Severe Weather on mobile